Terminal Aerodrome Forecast
Issued by NWS Omaha/Valley, NE

Home | Current Version | Previous Version | Text Only | Print | Product List | Glossary Off
Versions: 1 2 3 4 5 6 7 8 9 10 11 12 13 14 15 16 17 18

000
FTUS43 KOAX 190520
TAFOFK
TAF
KOFK 190520Z 1906/2006 36015G25KT P6SM OVC010
     FM190800 36015G28KT 6SM -FZDZ OVC007
     FM191400 36014G23KT P6SM OVC012
     FM192000 02012KT P6SM OVC012=

USA.gov is the U.S. government's official web portal to all federal, state and local government web resources and services.